createdAt,value
2017-09-23T00:01:32.111Z,10.50
2017-09-23T00:03:59.654Z,10.70
2017-09-23T00:06:27.987Z,10.90
2017-09-23T00:08:55.537Z,11.43
2017-09-23T00:11:23.095Z,9.90
2017-09-23T00:13:50.632Z,10.17
2017-09-23T00:16:18.187Z,9.63
2017-09-23T00:18:45.728Z,10.43
2017-09-23T00:21:14.065Z,9.77
2017-09-23T00:23:41.595Z,9.40
2017-09-23T00:26:09.177Z,9.77
2017-09-23T00:28:36.711Z,10.40
2017-09-23T00:31:04.252Z,9.17
2017-09-23T00:33:32.578Z,10.30
2017-09-23T00:36:00.894Z,10.20
2017-09-23T00:38:28.450Z,8.60
2017-09-23T00:40:55.985Z,9.80
2017-09-23T00:43:23.551Z,10.33
2017-09-23T00:45:51.088Z,8.70
2017-09-23T00:48:18.655Z,10.40
2017-09-23T00:50:46.196Z,10.30
2017-09-23T00:53:13.747Z,10.57
2017-09-23T00:55:41.279Z,9.70
2017-09-23T00:58:09.599Z,10.30
2017-09-23T01:00:37.135Z,10.30
2017-09-23T01:03:04.694Z,11.60
2017-09-23T01:05:32.240Z,10.97
2017-09-23T01:08:00.568Z,10.80
2017-09-23T01:10:28.111Z,9.83
2017-09-23T01:12:55.671Z,10.87
2017-09-23T01:15:23.216Z,10.80
2017-09-23T01:17:50.775Z,10.90
2017-09-23T01:20:18.319Z,13.40
2017-09-23T01:22:45.888Z,11.60
2017-09-23T01:25:13.421Z,11.20
2017-09-23T01:27:40.996Z,12.10
2017-09-23T01:30:09.294Z,11.97
2017-09-23T01:32:36.823Z,12.63
2017-09-23T01:35:05.146Z,12.20
2017-09-23T01:37:32.684Z,11.13
2017-09-23T01:40:00.253Z,10.60
2017-09-23T01:42:27.794Z,11.57
2017-09-23T01:44:56.121Z,10.50
2017-09-23T01:47:23.663Z,10.87
2017-09-23T01:49:51.230Z,12.50
2017-09-23T01:52:18.768Z,12.90
2017-09-23T01:54:46.323Z,12.33
2017-09-23T01:57:13.867Z,14.70
2017-09-23T01:59:41.434Z,13.50
2017-09-23T02:02:08.971Z,12.30
2017-09-23T02:04:37.299Z,13.47
2017-09-23T02:07:04.840Z,11.57
2017-09-23T02:09:32.407Z,13.47
2017-09-23T02:11:59.952Z,12.60
2017-09-23T02:14:27.512Z,11.43
2017-09-23T02:16:55.052Z,14.00
2017-09-23T02:19:23.391Z,13.93
2017-09-23T02:21:50.930Z,12.93
2017-09-23T02:24:18.499Z,13.03
2017-09-23T02:26:46.030Z,14.80
2017-09-23T02:29:13.612Z,13.97
2017-09-23T02:31:41.160Z,13.93
2017-09-23T02:34:08.701Z,12.40
2017-09-23T02:36:36.275Z,13.00
2017-09-23T02:39:03.819Z,12.13
2017-09-23T02:41:31.383Z,13.67
2017-09-23T02:43:59.685Z,13.07
2017-09-23T02:46:27.248Z,13.60
2017-09-23T02:48:54.791Z,12.60
2017-09-23T02:51:22.361Z,12.00
2017-09-23T02:53:49.894Z,12.73
2017-09-23T02:56:18.220Z,12.30
2017-09-23T02:58:45.759Z,11.40
2017-09-23T03:01:13.316Z,11.47
2017-09-23T03:03:40.851Z,13.60
2017-09-23T03:06:09.175Z,11.23
2017-09-23T03:08:36.712Z,10.87
2017-09-23T03:11:04.282Z,12.00
2017-09-23T03:13:31.824Z,11.60
2017-09-23T03:15:59.387Z,11.93
2017-09-23T03:18:26.930Z,11.90
2017-09-23T03:20:54.497Z,12.70
2017-09-23T03:23:22.032Z,11.77
2017-09-23T03:25:50.372Z,11.77
2017-09-23T03:28:17.903Z,12.13
2017-09-23T03:30:45.459Z,13.50
2017-09-23T03:33:12.991Z,11.53
2017-09-23T03:35:41.331Z,12.43
2017-09-23T03:38:08.876Z,13.03
2017-09-23T03:40:36.410Z,14.40
2017-09-23T03:43:03.971Z,14.57
2017-09-23T03:45:31.519Z,13.60
2017-09-23T03:47:59.838Z,13.90
2017-09-23T03:50:27.375Z,11.33
2017-09-23T03:52:55.142Z,11.80
2017-09-23T03:55:22.684Z,12.53
2017-09-23T03:57:51.008Z,12.57
2017-09-23T04:00:19.322Z,12.43
2017-09-23T04:02:47.665Z,13.47
2017-09-23T04:05:15.206Z,12.20
2017-09-23T04:07:42.771Z,13.77
2017-09-23T04:10:10.312Z,13.07
2017-09-23T04:12:37.871Z,13.80
2017-09-23T04:15:05.412Z,14.33
2017-09-23T04:17:33.739Z,14.07
2017-09-23T04:20:01.282Z,14.23
2017-09-23T04:22:28.835Z,14.13
2017-09-23T04:24:56.379Z,12.33
2017-09-23T04:27:23.948Z,12.60
2017-09-23T04:29:51.506Z,13.17
2017-09-23T04:32:19.083Z,12.10
2017-09-23T04:34:46.619Z,14.17
2017-09-23T04:37:14.163Z,13.97
2017-09-23T04:39:42.486Z,13.97
2017-09-23T04:42:10.015Z,12.37
2017-09-23T04:44:37.574Z,13.53
2017-09-23T04:47:05.107Z,13.00
2017-09-23T04:49:32.675Z,13.60
2017-09-23T04:52:00.974Z,12.80
2017-09-23T04:54:28.544Z,12.13
2017-09-23T04:56:56.079Z,12.80
2017-09-23T04:59:24.406Z,11.63
2017-09-23T05:01:51.935Z,11.17
2017-09-23T05:04:19.498Z,13.37
2017-09-23T05:06:47.030Z,12.77
2017-09-23T05:09:15.351Z,11.87
2017-09-23T05:11:42.923Z,12.87
2017-09-23T05:14:10.466Z,11.03
2017-09-23T05:16:38.004Z,11.07
2017-09-23T05:19:05.562Z,12.80
2017-09-23T05:21:33.098Z,11.80
2017-09-23T05:24:01.428Z,14.00
2017-09-23T05:26:28.967Z,13.13
2017-09-23T05:28:56.583Z,12.07
2017-09-23T05:31:24.118Z,12.90
2017-09-23T05:33:51.687Z,12.40
2017-09-23T05:36:19.995Z,13.10
2017-09-23T05:38:48.302Z,14.60
2017-09-23T05:41:15.867Z,12.37
2017-09-23T05:43:43.403Z,11.77
2017-09-23T05:46:11.726Z,10.90
2017-09-23T05:48:39.260Z,11.50
2017-09-23T05:51:06.825Z,10.67
2017-09-23T05:53:34.362Z,13.10
2017-09-23T05:56:02.691Z,12.27
2017-09-23T05:58:30.234Z,12.77
2017-09-23T06:00:57.797Z,11.77
2017-09-23T06:03:25.344Z,13.20
2017-09-23T06:05:52.915Z,11.80
2017-09-23T06:08:20.460Z,12.57
2017-09-23T06:10:48.037Z,11.43
2017-09-23T06:13:15.578Z,10.60
2017-09-23T06:15:43.138Z,10.37
2017-09-23T06:18:10.691Z,11.47
2017-09-23T06:20:38.255Z,10.70
2017-09-23T06:23:05.786Z,10.70
2017-09-23T06:25:34.111Z,11.17
2017-09-23T06:28:01.655Z,11.20
2017-09-23T06:30:29.216Z,10.67
2017-09-23T06:32:56.759Z,9.80
2017-09-23T06:35:24.319Z,11.20
2017-09-23T06:37:52.623Z,11.07
2017-09-23T06:40:20.170Z,12.27
2017-09-23T06:42:47.736Z,11.07
2017-09-23T06:45:15.271Z,11.57
2017-09-23T06:47:43.600Z,11.27
2017-09-23T06:50:11.131Z,10.33
2017-09-23T06:52:38.690Z,11.27
2017-09-23T06:55:06.231Z,10.57
2017-09-23T06:57:33.801Z,10.20
2017-09-23T07:00:01.336Z,10.10
2017-09-23T07:02:29.672Z,8.43
2017-09-23T07:04:57.206Z,10.10
2017-09-23T07:07:24.768Z,9.97
2017-09-23T07:09:52.299Z,9.27
2017-09-23T07:12:20.621Z,10.07
2017-09-23T07:14:48.156Z,9.50
2017-09-23T07:17:15.714Z,9.53
2017-09-23T07:19:43.252Z,11.33
2017-09-23T07:22:11.870Z,11.80
2017-09-23T07:24:39.406Z,10.77
2017-09-23T07:27:07.734Z,11.20
2017-09-23T07:29:35.280Z,13.20
2017-09-23T07:32:02.844Z,12.10
2017-09-23T07:34:30.376Z,12.43
2017-09-23T07:36:57.927Z,11.73
2017-09-23T07:39:26.227Z,12.10
2017-09-23T07:41:53.791Z,11.97
2017-09-23T07:44:21.330Z,12.10
2017-09-23T07:46:48.900Z,12.10
2017-09-23T07:49:16.434Z,11.73
2017-09-23T07:51:44.735Z,12.60
2017-09-23T07:54:12.296Z,12.90
2017-09-23T07:56:39.831Z,12.87
2017-09-23T07:59:08.162Z,14.17
2017-09-23T08:01:35.689Z,16.10
2017-09-23T08:04:03.251Z,15.03
2017-09-23T08:06:30.787Z,14.97
2017-09-23T08:08:59.203Z,16.73
2017-09-23T08:11:26.739Z,15.73
2017-09-23T08:13:55.064Z,14.30
2017-09-23T08:16:22.596Z,14.30
2017-09-23T08:18:50.163Z,13.80
2017-09-23T08:21:17.696Z,12.07
2017-09-23T08:23:45.254Z,12.33
2017-09-23T08:26:12.791Z,12.77
2017-09-23T08:28:41.126Z,12.50
2017-09-23T08:31:08.658Z,12.60
2017-09-23T08:33:36.323Z,12.97
2017-09-23T08:36:03.856Z,13.17
2017-09-23T08:38:32.475Z,13.10
2017-09-23T08:41:00.058Z,14.63
2017-09-23T08:43:27.637Z,13.40
2017-09-23T08:45:55.170Z,13.20
2017-09-23T08:48:22.708Z,13.40
2017-09-23T08:50:50.259Z,12.90
2017-09-23T08:53:17.800Z,12.50
2017-09-23T08:55:46.128Z,12.50
2017-09-23T08:58:13.698Z,10.80
2017-09-23T09:00:41.247Z,11.73
2017-09-23T09:03:08.787Z,14.20
2017-09-23T09:05:36.342Z,12.23
2017-09-23T09:08:03.874Z,14.07
2017-09-23T09:10:32.201Z,12.87
2017-09-23T09:12:59.743Z,12.30
2017-09-23T09:15:27.299Z,12.37
2017-09-23T09:17:54.840Z,12.67
2017-09-23T09:20:23.157Z,12.30
2017-09-23T09:22:50.691Z,12.27
2017-09-23T09:25:18.255Z,13.40
2017-09-23T09:27:45.786Z,13.67
2017-09-23T09:30:14.115Z,12.97
2017-09-23T09:32:41.643Z,12.40
2017-09-23T09:35:09.203Z,12.70
2017-09-23T09:37:36.736Z,10.67
2017-09-23T09:40:05.066Z,12.40
2017-09-23T09:42:32.604Z,13.07
2017-09-23T09:45:00.179Z,11.80
2017-09-23T09:47:27.713Z,12.43
2017-09-23T09:49:56.025Z,11.30
2017-09-23T09:52:23.592Z,12.60
2017-09-23T09:54:51.123Z,13.30
2017-09-23T09:57:18.702Z,14.77
2017-09-23T09:59:46.246Z,13.70
2017-09-23T10:02:13.805Z,13.77
2017-09-23T10:04:41.338Z,14.00
2017-09-23T10:07:09.662Z,13.33
2017-09-23T10:09:37.199Z,13.17
2017-09-23T10:12:04.751Z,11.27
2017-09-23T10:14:33.048Z,14.20
2017-09-23T10:17:00.612Z,12.80
2017-09-23T10:19:28.151Z,13.53
2017-09-23T10:21:55.706Z,12.00
2017-09-23T10:24:24.011Z,11.50
2017-09-23T10:26:51.571Z,12.57
2017-09-23T10:29:19.103Z,11.10
2017-09-23T10:31:46.902Z,10.93
2017-09-23T10:34:14.451Z,12.23
2017-09-23T10:36:42.013Z,12.00
2017-09-23T10:39:09.562Z,11.70
2017-09-23T10:41:37.114Z,10.33
2017-09-23T10:44:04.648Z,10.37
2017-09-23T10:46:32.981Z,9.73
2017-09-23T10:49:00.515Z,9.03
2017-09-23T10:51:28.078Z,10.13
2017-09-23T10:53:55.610Z,11.00
2017-09-23T10:56:23.915Z,11.60
2017-09-23T10:58:51.472Z,10.80
2017-09-23T11:01:19.004Z,9.60
2017-09-23T11:03:47.319Z,9.70
2017-09-23T11:06:14.843Z,9.30
2017-09-23T11:08:43.165Z,11.80
2017-09-23T11:11:10.695Z,9.33
2017-09-23T11:13:38.260Z,8.77
2017-09-23T11:16:05.794Z,9.20
2017-09-23T11:18:34.119Z,8.03
2017-09-23T11:21:01.651Z,8.73
2017-09-23T11:23:29.215Z,8.63
2017-09-23T11:25:56.743Z,9.40
2017-09-23T11:28:24.302Z,10.53
2017-09-23T11:30:51.831Z,11.17
2017-09-23T11:33:19.390Z,12.27
2017-09-23T11:35:46.928Z,11.53
2017-09-23T11:38:14.488Z,10.37
2017-09-23T11:40:42.023Z,10.33
2017-09-23T11:43:10.350Z,10.03
2017-09-23T11:45:37.879Z,9.63
2017-09-23T11:48:05.444Z,9.80
2017-09-23T11:50:32.974Z,9.30
2017-09-23T11:53:01.274Z,9.00
2017-09-23T11:55:28.827Z,9.47
2017-09-23T11:57:56.361Z,9.73
2017-09-23T12:00:24.685Z,7.27
2017-09-23T12:02:52.223Z,8.87
2017-09-23T12:05:19.774Z,8.50
2017-09-23T12:07:48.118Z,9.00
2017-09-23T12:10:15.679Z,8.60
2017-09-23T12:12:43.216Z,8.20
2017-09-23T12:15:10.772Z,9.40
2017-09-23T12:17:38.301Z,8.80
2017-09-23T12:20:05.851Z,9.20
2017-09-23T12:22:34.143Z,7.67
2017-09-23T12:25:01.703Z,7.47
2017-09-23T12:27:29.234Z,6.70
2017-09-23T12:29:57.556Z,6.37
2017-09-23T12:32:25.096Z,6.40
2017-09-23T12:34:52.652Z,6.80
2017-09-23T12:37:20.179Z,6.93
2017-09-23T12:39:47.734Z,6.93
2017-09-23T12:42:15.264Z,6.43
2017-09-23T12:44:42.819Z,6.23
2017-09-23T12:47:10.359Z,7.70
2017-09-23T12:49:37.896Z,7.13
2017-09-23T12:52:06.211Z,6.93
2017-09-23T12:54:33.740Z,6.83
2017-09-23T12:57:02.061Z,7.50
2017-09-23T12:59:29.596Z,6.33
2017-09-23T13:01:57.152Z,6.03
2017-09-23T13:04:24.676Z,5.40
2017-09-23T13:06:53.004Z,5.27
2017-09-23T13:09:20.534Z,5.37
2017-09-23T13:11:48.091Z,6.63
2017-09-23T13:14:16.385Z,5.33
2017-09-23T13:16:43.943Z,5.03
2017-09-23T13:19:11.476Z,5.50
2017-09-23T13:21:39.791Z,5.50
2017-09-23T13:24:07.327Z,5.50
2017-09-23T13:26:34.884Z,5.70
2017-09-23T13:29:03.180Z,5.40
2017-09-23T13:31:30.732Z,4.90
2017-09-23T13:33:58.262Z,6.10
2017-09-23T13:36:26.593Z,5.70
2017-09-23T13:38:54.128Z,5.97
2017-09-23T13:41:21.678Z,6.10
2017-09-23T13:43:49.217Z,6.30
2017-09-23T13:46:17.544Z,6.00
2017-09-23T13:48:45.266Z,5.77
2017-09-23T13:51:13.594Z,5.67
2017-09-23T13:53:41.131Z,6.10
2017-09-23T13:56:08.656Z,6.10
2017-09-23T13:58:37.004Z,5.50
2017-09-23T14:01:04.534Z,6.40
2017-09-23T14:03:32.084Z,5.27
2017-09-23T14:05:59.615Z,6.07
2017-09-23T14:08:27.938Z,4.90
2017-09-23T14:10:55.476Z,4.47
2017-09-23T14:13:23.031Z,4.80
2017-09-23T14:15:50.564Z,5.63
2017-09-23T14:18:18.131Z,5.00
2017-09-23T14:20:46.431Z,4.90
2017-09-23T14:23:14.002Z,4.37
2017-09-23T14:25:41.534Z,4.93
2017-09-23T14:28:09.859Z,4.37
2017-09-23T14:30:37.391Z,5.10
2017-09-23T14:33:04.943Z,4.63
2017-09-23T14:35:32.475Z,4.70
2017-09-23T14:38:00.035Z,4.50
2017-09-23T14:40:27.568Z,6.13
2017-09-23T14:42:55.132Z,6.53
2017-09-23T14:45:22.659Z,6.93
2017-09-23T14:47:50.217Z,7.23
2017-09-23T14:50:17.748Z,6.40
2017-09-23T14:52:46.072Z,7.63
2017-09-23T14:55:13.600Z,6.90
2017-09-23T14:57:41.155Z,7.27
2017-09-23T15:00:08.691Z,7.13
2017-09-23T15:02:37.002Z,6.40
2017-09-23T15:05:04.579Z,7.13
2017-09-23T15:07:32.128Z,7.20
2017-09-23T15:09:59.674Z,6.60
2017-09-23T15:12:27.214Z,7.67
2017-09-23T15:14:55.534Z,6.53
2017-09-23T15:17:23.059Z,7.00
2017-09-23T15:19:51.380Z,7.13
2017-09-23T15:22:18.911Z,6.40
2017-09-23T15:24:46.463Z,6.97
2017-09-23T15:27:14.754Z,7.20
2017-09-23T15:29:42.311Z,7.60
2017-09-23T15:32:09.840Z,6.73
2017-09-23T15:34:38.163Z,7.33
2017-09-23T15:37:05.690Z,6.43
2017-09-23T15:39:34.004Z,6.77
2017-09-23T15:42:01.537Z,6.30
2017-09-23T15:44:29.100Z,7.00
2017-09-23T15:46:56.627Z,6.60
2017-09-23T15:49:24.219Z,6.67
2017-09-23T15:51:52.498Z,6.53
2017-09-23T15:54:20.046Z,6.63
2017-09-23T15:56:48.334Z,6.63
2017-09-23T15:59:15.894Z,8.10
2017-09-23T16:01:43.427Z,6.37
2017-09-23T16:04:11.769Z,6.77
2017-09-23T16:06:39.304Z,7.47
2017-09-23T16:09:06.838Z,8.13
2017-09-23T16:11:35.163Z,8.70
2017-09-23T16:14:02.702Z,9.70
2017-09-23T16:16:30.262Z,8.67
2017-09-23T16:18:57.790Z,8.43
2017-09-23T16:21:26.120Z,7.97
2017-09-23T16:23:53.643Z,7.80
2017-09-23T16:26:21.201Z,8.63
2017-09-23T16:28:48.731Z,7.20
2017-09-23T16:31:17.060Z,7.63
2017-09-23T16:33:44.587Z,7.00
2017-09-23T16:36:12.909Z,7.20
2017-09-23T16:38:40.452Z,6.30
2017-09-23T16:41:08.016Z,6.70
2017-09-23T16:43:35.559Z,7.87
2017-09-23T16:46:03.119Z,7.20
2017-09-23T16:48:30.660Z,6.83
2017-09-23T16:50:58.987Z,7.90
2017-09-23T16:53:26.515Z,7.00
2017-09-23T16:55:54.071Z,8.80
2017-09-23T16:58:21.598Z,7.40
2017-09-23T17:00:49.160Z,8.10
2017-09-23T17:03:16.691Z,7.90
2017-09-23T17:05:44.268Z,7.17
2017-09-23T17:08:11.807Z,7.40
2017-09-23T17:10:40.103Z,8.37
2017-09-23T17:13:07.966Z,8.07
2017-09-23T17:15:35.489Z,7.83
2017-09-23T17:18:03.048Z,8.60
2017-09-23T17:20:30.574Z,8.23
2017-09-23T17:22:58.908Z,8.50
2017-09-23T17:25:26.444Z,8.20
2017-09-23T17:27:53.991Z,9.13
2017-09-23T17:30:21.533Z,8.60
2017-09-23T17:32:49.855Z,10.00
2017-09-23T17:35:17.394Z,9.20
2017-09-23T17:37:44.956Z,9.10
2017-09-23T17:40:12.495Z,9.73
2017-09-23T17:42:40.819Z,8.93
2017-09-23T17:45:08.360Z,9.67
2017-09-23T17:47:35.918Z,9.37
2017-09-23T17:50:03.455Z,9.53
2017-09-23T17:52:31.006Z,8.83
2017-09-23T17:54:59.307Z,8.30
2017-09-23T17:57:26.878Z,7.80
2017-09-23T17:59:54.410Z,9.07
2017-09-23T18:02:21.987Z,9.47
2017-09-23T18:04:49.519Z,8.43
2017-09-23T18:07:17.819Z,8.73
2017-09-23T18:09:45.384Z,8.70
2017-09-23T18:12:12.918Z,9.10
2017-09-23T18:14:41.252Z,8.27
2017-09-23T18:17:08.793Z,8.90
2017-09-23T18:19:36.369Z,8.60
2017-09-23T18:22:03.915Z,8.60
2017-09-23T18:24:31.554Z,9.87
2017-09-23T18:26:59.099Z,8.53
2017-09-23T18:29:27.427Z,9.10
2017-09-23T18:31:54.951Z,8.67
2017-09-23T18:34:22.503Z,8.80
2017-09-23T18:36:50.830Z,7.60
2017-09-23T18:39:18.396Z,9.30
2017-09-23T18:41:45.950Z,8.33
2017-09-23T18:44:13.524Z,9.20
2017-09-23T18:46:41.065Z,9.50
2017-09-23T18:49:08.623Z,8.93
2017-09-23T18:51:36.936Z,10.43
2017-09-23T18:54:05.268Z,9.73
2017-09-23T18:56:32.813Z,9.50
2017-09-23T18:59:00.382Z,10.57
2017-09-23T19:01:27.929Z,9.73
2017-09-23T19:03:55.508Z,8.67
2017-09-23T19:06:23.039Z,9.33
2017-09-23T19:08:50.572Z,8.50
2017-09-23T19:11:18.899Z,8.50
2017-09-23T19:13:46.451Z,9.80
2017-09-23T19:16:14.006Z,7.87
2017-09-23T19:18:41.590Z,9.80
2017-09-23T19:21:09.154Z,9.87
2017-09-23T19:23:36.688Z,9.57
2017-09-23T19:26:04.243Z,9.10
2017-09-23T19:28:31.843Z,8.23
2017-09-23T19:30:59.408Z,9.50
2017-09-23T19:33:26.944Z,8.83
2017-09-23T19:35:54.499Z,9.30
2017-09-23T19:38:22.032Z,9.30
2017-09-23T19:40:49.600Z,10.00
2017-09-23T19:43:17.144Z,12.20
2017-09-23T19:45:45.482Z,18.30
2017-09-23T19:48:13.028Z,15.33
2017-09-23T19:50:41.363Z,10.40
2017-09-23T19:53:09.665Z,20.40
2017-09-23T19:55:37.231Z,14.13
2017-09-23T19:58:04.772Z,14.77
2017-09-23T20:00:32.340Z,10.97
2017-09-23T20:02:59.879Z,11.27
2017-09-23T20:05:28.215Z,9.10
2017-09-23T20:07:55.755Z,10.50
2017-09-23T20:10:23.334Z,9.70
2017-09-23T20:12:50.883Z,9.43
2017-09-23T20:15:18.414Z,10.37
2017-09-23T20:17:45.972Z,8.90
2017-09-23T20:20:13.503Z,8.57
2017-09-23T20:22:41.823Z,9.03
2017-09-23T20:25:09.361Z,9.37
2017-09-23T20:27:36.923Z,9.53
2017-09-23T20:30:04.462Z,10.00
2017-09-23T20:32:32.831Z,11.03
2017-09-23T20:35:01.141Z,10.63
2017-09-23T20:37:28.699Z,10.63
2017-09-23T20:39:56.242Z,10.30
2017-09-23T20:42:24.563Z,10.50
2017-09-23T20:44:52.192Z,8.50
2017-09-23T20:47:19.755Z,11.73
2017-09-23T20:49:47.290Z,10.57
2017-09-23T20:52:15.624Z,9.17
2017-09-23T20:54:43.158Z,9.00
2017-09-23T20:57:10.742Z,9.40
2017-09-23T20:59:38.266Z,9.37
2017-09-23T21:02:05.822Z,9.00
2017-09-23T21:04:34.118Z,10.10
2017-09-23T21:07:01.664Z,10.80
2017-09-23T21:09:29.202Z,10.60
2017-09-23T21:11:57.507Z,9.97
2017-09-23T21:14:25.067Z,11.00
2017-09-23T21:16:56.516Z,10.50
2017-09-23T21:19:24.078Z,12.30
2017-09-23T21:21:51.608Z,12.10
2017-09-23T21:24:19.943Z,11.20
2017-09-23T21:26:47.478Z,12.23
2017-09-23T21:29:15.035Z,10.10
2017-09-23T21:31:42.572Z,11.63
2017-09-23T21:34:10.900Z,11.33
2017-09-23T21:36:38.437Z,10.77
2017-09-23T21:39:06.011Z,12.10
2017-09-23T21:41:33.547Z,9.93
2017-09-23T21:44:01.106Z,10.97
2017-09-23T21:46:28.641Z,9.53
2017-09-23T21:48:56.974Z,10.67
2017-09-23T21:51:24.511Z,10.73
2017-09-23T21:53:52.071Z,11.03
2017-09-23T21:56:19.601Z,11.33
2017-09-23T21:58:47.940Z,11.80
2017-09-23T22:01:16.246Z,10.97
2017-09-23T22:03:43.810Z,12.07
2017-09-23T22:06:11.343Z,11.67
2017-09-23T22:08:39.678Z,12.13
2017-09-23T22:11:07.232Z,11.10
2017-09-23T22:13:34.795Z,12.27
2017-09-23T22:16:02.331Z,12.10
2017-09-23T22:18:30.643Z,12.30
2017-09-23T22:20:58.216Z,12.93
2017-09-23T22:23:25.745Z,12.47
2017-09-23T22:25:54.070Z,12.07
2017-09-23T22:28:21.611Z,12.97
2017-09-23T22:52:09.611Z,14.90
2017-09-23T22:54:37.186Z,13.77
2017-09-23T22:57:04.731Z,14.73
2017-09-23T22:59:32.280Z,13.10
2017-09-23T23:01:59.843Z,12.37
2017-09-23T23:04:27.383Z,12.90
2017-09-23T23:07:05.261Z,12.43
2017-09-23T23:09:33.567Z,14.07
2017-09-23T23:12:01.133Z,12.07
2017-09-23T23:14:28.663Z,12.90
2017-09-23T23:16:56.224Z,13.30
2017-09-23T23:19:23.766Z,13.03
2017-09-23T23:21:52.092Z,12.10
2017-09-23T23:24:19.615Z,13.40
2017-09-23T23:26:47.935Z,13.00
2017-09-23T23:29:15.462Z,12.70
2017-09-23T23:31:43.018Z,13.00
2017-09-23T23:34:11.311Z,13.80
2017-09-23T23:36:50.116Z,13.73
2017-09-23T23:39:18.415Z,13.30
2017-09-23T23:41:45.972Z,12.70
2017-09-23T23:44:13.518Z,13.50
2017-09-23T23:46:41.074Z,13.10
2017-09-23T23:49:09.370Z,14.00
2017-09-23T23:51:36.922Z,13.87
2017-09-23T23:54:04.463Z,14.47
2017-09-23T23:56:32.789Z,14.73
2017-09-23T23:59:00.324Z,17.07
